Terminal Aerodrome Forecast
Issued by NWS

Home | Current Version | Previous Version | Text Only | Print | Product List | Glossary On
Versions: 1 2 3 4 5 6 7 8 9 10 11 12 13 14 15 16 17 18 19 20 21 22 23 24 25 26 27 28
000
FTUS45 KGJT 042326
TAFASE
TAF
KASE 042326Z 0500/0524 05004KT P6SM VCSH SCT040 BKN060 OVC070
      TEMPO 0500/0503 -SHRA BKN040 OVC060
     FM050300 20005KT P6SM VCSH BKN060
     FM050600 19004KT P6SM SCT080 BKN120
     FM051200 VRB03KT P6SM FEW080 BKN120
     FM052000 23007KT P6SM SCT080=

USA.gov is the U.S. government's official web portal to all federal, state and local government web resources and services.